Accueil
METAR-TAF:

METAR-TAF

Aéroports :

Pruniers

Romorantin, France

latitude: 47-19N, longitude: 001-41E, altitude: 85 m

Observation

Le bulletin a été fait il y a 27 minutes, à 19:30 UTC
Vent calme
Température 8°C
Humidité 93%
Pression 1029 hPa
Visibilité 10 km ou plus
pas de nuages en-dessous de 1500 mètres et pas de cumulonimbus.

METAR: LFYR 061930Z AUTO 00000KT CAVOK 08/07 Q1029

Heure: 21:57 (19:57 UTC)

Prévision

Le bulletin a été fait il y a 5 heures et 57 minutes, à 14:00 UTC
Prévision valable du 06 à 15 UTC au 07 à 15 UTC
Vent 3 kt de direction variable
Visibilité 10 km ou plus
pas de nuages en-dessous de 1500 mètres et pas de cumulonimbus.
Probabilité 40% :
Temporairement
du 07 à 01 UTC au 07 à 08 UTC
Visibilité: 2000 m
brume
Probabilité 30% :
Temporairement
du 07 à 01 UTC au 07 à 08 UTC
Visibilité: 0500 m
brouillard

TAF: LFYR 061400Z 0615/0715 VRB03KT CAVOK PROB40 TEMPO 0701/0708 2000 BR PROB30 TEMPO 0701/0708 0500 FG VV///

Observations et prévisions météorologiques de plus de 4000 aéroports (messages METAR et TAF).

Les stations disponibles sont représentées par des disques jaunes et rouges sur la carte.

Passer la souris dessus pour voir le nom de la station.

Cliquer dessus pour voir les observations et prévisions météorologiques.

Pour changer de carte: cliquez sur les boutons verts avec une croix noire pour zoomer, sur le bouton vert avec un tiret pour effectuer un zoom arrière, ou sur les flèches vertes pour les cartes adjacentes.


METAR-TAF: